createdAt,value
2019-03-22T00:00:40.741Z,92.70
2019-03-22T00:03:10.512Z,92.20
2019-03-22T00:05:40.338Z,92.00
2019-03-22T00:08:10.102Z,92.10
2019-03-22T00:10:39.834Z,92.30
2019-03-22T00:13:09.578Z,93.20
2019-03-22T00:15:39.317Z,93.20
2019-03-22T00:18:09.046Z,93.80
2019-03-22T00:20:38.826Z,93.40
2019-03-22T00:23:08.555Z,93.50
2019-03-22T00:25:38.299Z,93.10
2019-03-22T00:28:09.059Z,93.40
2019-03-22T00:30:38.786Z,94.50
2019-03-22T00:33:08.587Z,94.80
2019-03-22T00:35:38.324Z,94.00
2019-03-22T00:38:08.094Z,94.10
2019-03-22T00:40:37.827Z,94.20
2019-03-22T00:43:07.562Z,93.10
2019-03-22T00:45:37.299Z,92.60
2019-03-22T00:48:07.032Z,93.40
2019-03-22T00:50:36.827Z,93.40
2019-03-22T00:53:06.556Z,93.30
2019-03-22T00:55:36.290Z,93.10
2019-03-22T00:58:06.027Z,92.80
2019-03-22T01:00:35.785Z,92.60
2019-03-22T01:03:05.609Z,92.90
2019-03-22T01:05:35.350Z,93.00
2019-03-22T01:08:06.030Z,93.60
2019-03-22T01:10:35.789Z,94.30
2019-03-22T01:13:06.552Z,94.50
2019-03-22T01:15:36.282Z,94.50
2019-03-22T01:18:06.398Z,94.00
2019-03-22T01:20:36.118Z,93.70
2019-03-22T01:23:05.907Z,94.30
2019-03-22T01:25:35.634Z,95.00
2019-03-22T01:28:05.387Z,94.60
2019-03-22T01:30:35.144Z,93.90
2019-03-22T01:33:04.966Z,94.20
2019-03-22T01:35:33.900Z,94.50
2019-03-22T01:38:02.702Z,94.90
2019-03-22T01:40:31.490Z,95.20
2019-03-22T01:43:00.342Z,95.40
2019-03-22T01:45:29.138Z,95.60
2019-03-22T01:47:57.942Z,96.40
2019-03-22T01:50:27.028Z,96.80
2019-03-22T01:52:55.827Z,96.70
2019-03-22T01:55:24.629Z,96.70
2019-03-22T01:57:54.083Z,96.80
2019-03-22T02:00:23.070Z,96.80
2019-03-22T02:02:51.871Z,96.90
2019-03-22T02:05:21.011Z,96.80
2019-03-22T02:07:49.814Z,96.70
2019-03-22T02:10:18.615Z,96.50
2019-03-22T02:12:47.464Z,96.20
2019-03-22T02:15:16.302Z,96.10
2019-03-22T02:17:45.118Z,96.20
2019-03-22T02:20:14.794Z,96.20
2019-03-22T02:22:43.795Z,96.40
2019-03-22T02:25:12.923Z,96.40
2019-03-22T02:27:43.214Z,96.40
2019-03-22T02:30:13.552Z,96.10
2019-03-22T02:32:42.357Z,96.20
2019-03-22T02:35:26.857Z,96.10
2019-03-22T02:37:42.374Z,96.10
2019-03-22T02:40:12.355Z,96.10
2019-03-22T02:42:42.199Z,96.10
2019-03-22T02:45:11.710Z,96.10
2019-03-22T02:47:40.504Z,96.10
2019-03-22T02:50:18.815Z,96.00
2019-03-22T02:52:43.231Z,95.90
2019-03-22T02:55:12.198Z,95.90
2019-03-22T02:57:40.959Z,96.00
2019-03-22T03:00:11.242Z,96.00
2019-03-22T03:02:40.040Z,95.90
2019-03-22T03:05:09.495Z,95.90
2019-03-22T03:07:38.291Z,95.90
2019-03-22T03:10:08.693Z,96.10
2019-03-22T03:12:37.582Z,96.10
2019-03-22T03:15:07.798Z,96.10
2019-03-22T03:17:36.603Z,96.10
2019-03-22T03:20:06.629Z,96.10
2019-03-22T03:22:35.424Z,96.20
2019-03-22T03:25:06.035Z,96.30
2019-03-22T03:27:34.879Z,96.30
2019-03-22T03:30:05.378Z,96.30
2019-03-22T03:32:34.180Z,96.30
2019-03-22T03:35:02.990Z,96.30
2019-03-22T03:37:31.806Z,96.30
2019-03-22T03:40:00.596Z,96.40
2019-03-22T03:42:29.383Z,96.40
2019-03-22T03:44:58.238Z,96.50
2019-03-22T03:47:27.028Z,96.60
2019-03-22T03:49:55.839Z,96.70
2019-03-22T03:52:24.660Z,96.80
2019-03-22T03:54:53.477Z,96.70
2019-03-22T03:57:22.290Z,96.80
2019-03-22T03:59:51.087Z,96.90
2019-03-22T04:02:19.900Z,96.90
2019-03-22T04:04:48.700Z,96.90
2019-03-22T04:07:17.500Z,96.80
2019-03-22T04:09:46.339Z,96.80
2019-03-22T04:12:15.164Z,96.70
2019-03-22T04:14:43.940Z,96.60
2019-03-22T04:17:12.737Z,96.40
2019-03-22T04:19:41.559Z,96.20
2019-03-22T04:22:10.415Z,96.00
2019-03-22T04:24:39.193Z,96.00
2019-03-22T04:27:07.992Z,96.40
2019-03-22T04:29:36.796Z,96.20
2019-03-22T04:32:06.565Z,95.80
2019-03-22T04:34:35.392Z,95.50
2019-03-22T04:37:04.622Z,95.30
2019-03-22T04:39:33.430Z,95.10
2019-03-22T04:42:02.246Z,95.40
2019-03-22T04:44:31.040Z,95.10
2019-03-22T04:47:00.774Z,94.90
2019-03-22T04:49:30.565Z,94.70
2019-03-22T04:51:59.374Z,94.60
2019-03-22T04:54:29.789Z,94.50
2019-03-22T04:56:58.689Z,94.80
2019-03-22T04:59:27.695Z,95.10
2019-03-22T05:01:57.996Z,95.60
2019-03-22T05:04:26.934Z,96.60
2019-03-22T05:06:56.530Z,96.90
2019-03-22T05:09:26.770Z,96.80
2019-03-22T05:11:56.473Z,96.20
2019-03-22T05:14:25.669Z,96.80
2019-03-22T05:16:54.869Z,96.80
2019-03-22T05:19:25.073Z,96.90
2019-03-22T05:21:55.015Z,96.70
2019-03-22T05:24:25.034Z,96.10
2019-03-22T05:26:55.282Z,96.10
2019-03-22T05:29:30.578Z,96.30
2019-03-22T05:31:57.123Z,96.20
2019-03-22T05:34:26.230Z,96.20
2019-03-22T05:36:55.086Z,96.10
2019-03-22T05:39:23.881Z,96.10
2019-03-22T05:41:52.726Z,95.50
2019-03-22T05:44:21.575Z,95.40
2019-03-22T05:46:50.366Z,95.50
2019-03-22T05:49:19.166Z,95.80
2019-03-22T05:51:48.003Z,96.00
2019-03-22T05:54:16.797Z,96.30
2019-03-22T05:56:45.591Z,96.40
2019-03-22T05:59:14.435Z,96.30
2019-03-22T06:01:45.239Z,96.30
2019-03-22T06:04:13.665Z,96.60
2019-03-22T06:06:42.471Z,95.90
2019-03-22T06:09:11.267Z,95.80
2019-03-22T06:11:40.104Z,95.70
2019-03-22T06:14:09.207Z,95.70
2019-03-22T06:16:38.002Z,95.80
2019-03-22T06:19:06.813Z,96.00
2019-03-22T06:21:35.616Z,96.20
2019-03-22T06:24:04.461Z,96.30
2019-03-22T06:26:33.257Z,96.40
2019-03-22T06:29:02.064Z,96.40
2019-03-22T06:31:36.205Z,96.60
2019-03-22T06:34:05.063Z,96.50
2019-03-22T06:36:33.862Z,96.50
2019-03-22T06:39:02.678Z,96.60
2019-03-22T06:41:31.515Z,96.70
2019-03-22T06:44:00.321Z,96.70
2019-03-22T06:46:29.131Z,96.80
2019-03-22T06:48:58.721Z,96.80
2019-03-22T06:51:27.518Z,96.80
2019-03-22T06:53:56.361Z,96.80
2019-03-22T06:56:25.158Z,96.70
2019-03-22T06:58:53.963Z,96.50
2019-03-22T07:01:22.757Z,96.40
2019-03-22T07:03:51.549Z,96.30
2019-03-22T07:06:20.426Z,96.30
2019-03-22T07:08:49.228Z,96.30
2019-03-22T07:11:18.018Z,96.20
2019-03-22T07:13:46.819Z,96.20
2019-03-22T07:16:15.608Z,95.90
2019-03-22T07:18:44.450Z,95.90
2019-03-22T07:21:13.237Z,95.90
2019-03-22T07:23:42.043Z,95.90
2019-03-22T07:26:10.846Z,96.00
2019-03-22T07:28:39.648Z,96.40
2019-03-22T07:31:08.714Z,96.10
2019-03-22T07:33:37.506Z,96.10
2019-03-22T07:36:06.305Z,96.10
2019-03-22T07:38:35.138Z,96.00
2019-03-22T07:41:03.929Z,95.80
2019-03-22T07:43:33.844Z,96.00
2019-03-22T07:46:02.648Z,95.90
2019-03-22T07:48:31.440Z,95.80
2019-03-22T07:51:00.275Z,95.70
2019-03-22T07:53:29.077Z,95.60
2019-03-22T07:55:57.883Z,95.60
2019-03-22T07:58:26.682Z,95.50
2019-03-22T08:00:55.489Z,95.50
2019-03-22T08:03:24.322Z,95.60
2019-03-22T08:05:53.115Z,95.50
2019-03-22T08:08:21.915Z,95.50
2019-03-22T08:10:50.765Z,95.50
2019-03-22T08:13:19.693Z,95.50
2019-03-22T08:15:48.506Z,95.50
2019-03-22T08:18:17.347Z,95.50
2019-03-22T08:20:46.131Z,95.50
2019-03-22T08:23:22.872Z,95.50
2019-03-22T08:25:52.099Z,95.50
2019-03-22T08:28:20.893Z,95.40
2019-03-22T08:30:50.673Z,95.40
2019-03-22T08:33:19.483Z,95.40
2019-03-22T08:35:48.278Z,95.50
2019-03-22T08:38:17.632Z,95.60
2019-03-22T08:40:46.606Z,95.50
2019-03-22T08:43:15.406Z,95.30
2019-03-22T08:45:44.222Z,95.20
2019-03-22T08:48:13.018Z,95.30
2019-03-22T08:50:42.709Z,95.20
2019-03-22T08:53:12.477Z,95.10
2019-03-22T08:55:42.189Z,95.20
2019-03-22T08:58:11.962Z,95.20
2019-03-22T09:00:41.816Z,95.30
2019-03-22T09:03:11.599Z,95.10
2019-03-22T09:05:41.296Z,94.50
2019-03-22T09:08:11.018Z,94.20
2019-03-22T09:10:40.830Z,94.30
2019-03-22T09:13:10.640Z,94.40
2019-03-22T09:15:41.358Z,94.30
2019-03-22T09:18:11.526Z,94.10
2019-03-22T09:20:41.416Z,93.80
2019-03-22T09:23:12.150Z,93.60
2019-03-22T09:25:41.924Z,93.60
2019-03-22T09:28:11.663Z,93.40
2019-03-22T09:30:41.427Z,93.40
2019-03-22T09:33:13.383Z,93.30
2019-03-22T09:35:42.535Z,93.30
2019-03-22T09:38:13.338Z,93.40
2019-03-22T09:40:43.299Z,93.30
2019-03-22T09:43:13.018Z,93.20
2019-03-22T09:45:42.857Z,93.80
2019-03-22T09:48:12.757Z,93.40
2019-03-22T09:50:42.562Z,93.20
2019-03-22T09:53:12.402Z,93.10
2019-03-22T09:55:42.102Z,93.00
2019-03-22T09:58:11.905Z,93.20
2019-03-22T10:00:41.756Z,93.00
2019-03-22T10:03:12.538Z,93.00
2019-03-22T10:05:42.279Z,92.90
2019-03-22T10:08:12.251Z,92.70
2019-03-22T10:10:41.983Z,92.70
2019-03-22T10:13:11.702Z,92.60
2019-03-22T10:15:41.440Z,92.40
2019-03-22T10:18:11.179Z,92.20
2019-03-22T10:20:41.953Z,92.20
2019-03-22T10:23:11.754Z,91.90
2019-03-22T10:25:41.443Z,91.80
2019-03-22T10:28:11.245Z,91.90
2019-03-22T10:30:40.944Z,92.00
2019-03-22T10:33:22.069Z,91.70
2019-03-22T10:35:42.069Z,91.90
2019-03-22T10:38:16.421Z,91.60
2019-03-22T10:40:42.606Z,91.50
2019-03-22T10:43:11.427Z,91.50
2019-03-22T10:45:40.293Z,91.30
2019-03-22T10:48:09.034Z,91.30
2019-03-22T10:50:37.954Z,91.50
2019-03-22T10:53:06.820Z,91.50
2019-03-22T10:55:35.793Z,91.40
2019-03-22T10:58:04.650Z,91.40
2019-03-22T11:00:33.459Z,91.30
2019-03-22T11:03:02.271Z,91.40
2019-03-22T11:05:31.082Z,91.10
2019-03-22T11:08:00.173Z,91.00
2019-03-22T11:10:29.028Z,91.10
2019-03-22T11:12:57.824Z,90.90
2019-03-22T11:15:26.727Z,90.90
2019-03-22T11:17:55.546Z,90.70
2019-03-22T11:20:24.353Z,90.80
2019-03-22T11:22:53.235Z,90.90
2019-03-22T11:25:22.049Z,90.80
2019-03-22T11:27:50.850Z,90.80
2019-03-22T11:30:19.664Z,91.20
2019-03-22T11:32:48.475Z,91.00
2019-03-22T11:35:17.323Z,91.00
2019-03-22T11:37:46.131Z,91.10
2019-03-22T11:40:15.555Z,91.20
2019-03-22T11:42:44.472Z,91.30
2019-03-22T11:45:15.002Z,91.40
2019-03-22T11:47:43.807Z,91.30
2019-03-22T11:50:13.219Z,91.30
2019-03-22T11:52:42.032Z,91.40
2019-03-22T11:55:14.079Z,91.30
2019-03-22T11:57:42.934Z,91.20
2019-03-22T12:00:13.209Z,91.20
2019-03-22T12:02:42.030Z,91.10
2019-03-22T12:05:10.845Z,91.00
2019-03-22T12:07:39.638Z,91.10
2019-03-22T12:10:09.589Z,91.00
2019-03-22T12:12:38.391Z,91.00
2019-03-22T12:15:08.607Z,90.90
2019-03-22T12:17:37.416Z,90.60
2019-03-22T12:20:07.687Z,90.40
2019-03-22T12:22:38.591Z,90.60
2019-03-22T12:25:08.066Z,90.20
2019-03-22T12:27:37.011Z,90.40
2019-03-22T12:30:15.668Z,90.20
2019-03-22T12:32:44.715Z,90.20
2019-03-22T12:35:14.520Z,90.20
2019-03-22T12:37:44.427Z,89.90
2019-03-22T12:40:14.707Z,89.60
2019-03-22T12:42:43.514Z,90.00
2019-03-22T12:45:16.767Z,90.10
2019-03-22T12:47:45.611Z,89.80
2019-03-22T12:50:14.735Z,89.20
2019-03-22T12:52:43.544Z,89.60
2019-03-22T12:55:12.352Z,89.90
2019-03-22T12:57:41.147Z,89.70
2019-03-22T13:00:19.882Z,89.50
2019-03-22T13:02:48.691Z,88.90
2019-03-22T13:05:17.494Z,88.50
2019-03-22T13:07:46.350Z,88.50
2019-03-22T13:10:16.622Z,88.50
2019-03-22T13:12:45.434Z,88.30
2019-03-22T13:15:14.344Z,88.30
2019-03-22T13:17:43.159Z,88.30
2019-03-22T13:20:12.766Z,88.20
2019-03-22T13:22:41.565Z,87.90
2019-03-22T13:25:11.737Z,87.40
2019-03-22T13:27:40.538Z,87.20
2019-03-22T13:30:13.701Z,87.00
2019-03-22T13:32:51.850Z,87.20
2019-03-22T13:35:12.959Z,87.10
2019-03-22T13:37:41.761Z,87.70
2019-03-22T13:40:10.571Z,87.70
2019-03-22T13:42:39.422Z,87.80
2019-03-22T13:45:08.240Z,88.00
2019-03-22T13:47:37.046Z,87.90
2019-03-22T13:50:06.662Z,88.10
2019-03-22T13:52:35.570Z,88.30
2019-03-22T13:55:05.511Z,88.40
2019-03-22T13:57:35.315Z,89.40
2019-03-22T14:00:11.134Z,88.70
2019-03-22T14:02:39.948Z,89.10
2019-03-22T14:05:09.078Z,89.10
2019-03-22T14:07:38.187Z,89.30
2019-03-22T14:10:07.682Z,89.50
2019-03-22T14:12:37.177Z,89.20
2019-03-22T14:15:07.066Z,89.20
2019-03-22T14:17:36.018Z,89.50
2019-03-22T14:20:11.111Z,89.70
2019-03-22T14:22:36.101Z,89.70
2019-03-22T14:25:05.609Z,89.70
2019-03-22T14:27:34.406Z,89.80
2019-03-22T14:30:04.687Z,89.60
2019-03-22T14:32:33.482Z,89.80
2019-03-22T14:35:02.740Z,90.00
2019-03-22T14:37:31.539Z,90.00
2019-03-22T14:40:00.477Z,90.00
2019-03-22T14:42:29.259Z,90.00
2019-03-22T14:44:58.065Z,90.00
2019-03-22T14:47:26.887Z,90.40
2019-03-22T14:49:55.691Z,90.10
2019-03-22T14:52:24.658Z,90.20
2019-03-22T14:54:53.466Z,90.50
2019-03-22T14:57:22.272Z,90.50
2019-03-22T14:59:58.564Z,90.50
2019-03-22T15:02:21.511Z,90.60
2019-03-22T15:04:50.329Z,90.50
2019-03-22T15:07:20.017Z,90.50
2019-03-22T15:09:49.063Z,90.50
2019-03-22T15:12:17.883Z,90.60
2019-03-22T15:14:54.211Z,90.70
2019-03-22T15:17:24.583Z,90.70
2019-03-22T15:19:54.998Z,90.80
2019-03-22T15:22:29.391Z,91.00
2019-03-22T15:24:59.799Z,91.00
2019-03-22T15:27:39.020Z,91.10
2019-03-22T15:30:16.760Z,91.20
2019-03-22T15:32:53.130Z,91.20
2019-03-22T15:35:41.809Z,91.20
2019-03-22T15:38:28.827Z,91.40
2019-03-22T15:40:57.760Z,91.40
2019-03-22T15:43:26.549Z,91.40
2019-03-22T15:45:55.372Z,91.60
2019-03-22T15:48:24.225Z,91.60
2019-03-22T15:50:53.002Z,91.80
2019-03-22T15:53:22.858Z,92.10
2019-03-22T15:55:51.666Z,92.00
2019-03-22T15:58:20.480Z,92.00
2019-03-22T16:00:49.315Z,92.00
2019-03-22T16:03:18.133Z,92.40
2019-03-22T16:05:46.938Z,92.00
2019-03-22T16:08:15.800Z,92.00
2019-03-22T16:10:44.593Z,92.00
2019-03-22T16:13:13.406Z,92.00
2019-03-22T16:15:42.267Z,92.00
2019-03-22T16:18:11.041Z,92.10
2019-03-22T16:20:39.849Z,92.10
2019-03-22T16:23:08.647Z,92.10
2019-03-22T16:25:37.457Z,92.10
2019-03-22T16:28:06.293Z,92.20
2019-03-22T16:30:35.086Z,92.20
2019-03-22T16:33:03.893Z,92.20
2019-03-22T16:35:32.710Z,92.10
2019-03-22T16:38:01.520Z,92.10
2019-03-22T16:40:30.383Z,92.10
2019-03-22T16:42:59.187Z,92.10
2019-03-22T16:45:38.058Z,92.10
2019-03-22T16:48:06.861Z,92.00
2019-03-22T16:50:35.675Z,92.10
2019-03-22T16:53:04.711Z,92.10
2019-03-22T16:55:33.514Z,92.20
2019-03-22T16:58:02.322Z,92.30
2019-03-22T17:00:31.161Z,92.30
2019-03-22T17:02:59.954Z,92.40
2019-03-22T17:05:30.989Z,92.50
2019-03-22T17:07:59.790Z,92.50
2019-03-22T17:10:28.596Z,92.70
2019-03-22T17:12:57.442Z,92.70
2019-03-22T17:15:26.250Z,92.90
2019-03-22T17:17:55.050Z,93.00
2019-03-22T17:20:23.898Z,93.20
2019-03-22T17:22:53.705Z,93.30
2019-03-22T17:25:22.529Z,93.30
2019-03-22T17:27:51.330Z,93.40
2019-03-22T17:30:20.128Z,93.50
2019-03-22T17:32:48.962Z,93.60
2019-03-22T17:35:17.766Z,93.70
2019-03-22T17:37:46.572Z,93.70
2019-03-22T17:40:15.530Z,93.70
2019-03-22T17:42:44.374Z,93.80
2019-03-22T17:45:15.588Z,93.80
2019-03-22T17:47:44.583Z,93.90
2019-03-22T17:50:13.996Z,93.90
2019-03-22T17:52:42.827Z,94.20
2019-03-22T17:55:11.726Z,94.10
2019-03-22T17:57:40.547Z,94.10
2019-03-22T18:00:17.910Z,94.10
2019-03-22T18:02:47.050Z,94.00
2019-03-22T18:05:15.867Z,94.00
2019-03-22T18:07:44.667Z,94.00
2019-03-22T18:10:13.462Z,94.10
2019-03-22T18:12:43.410Z,94.20
2019-03-22T18:15:12.918Z,94.50
2019-03-22T18:17:41.731Z,94.40
2019-03-22T18:20:11.830Z,94.30
2019-03-22T18:22:40.643Z,94.80
2019-03-22T18:25:10.245Z,94.70
2019-03-22T18:27:39.047Z,94.70
2019-03-22T18:30:09.418Z,94.80
2019-03-22T18:32:38.475Z,94.90
2019-03-22T18:35:07.672Z,95.10
2019-03-22T18:37:36.474Z,95.10
2019-03-22T18:40:06.580Z,95.10
2019-03-22T18:42:35.397Z,95.10
2019-03-22T18:45:06.008Z,94.80
2019-03-22T18:47:35.750Z,94.10
2019-03-22T18:50:07.875Z,93.90
2019-03-22T18:52:37.660Z,94.00
2019-03-22T18:55:08.595Z,94.40
2019-03-22T18:57:38.357Z,94.80
2019-03-22T19:00:18.659Z,94.90
2019-03-22T19:02:48.444Z,95.30
2019-03-22T19:05:18.182Z,95.80
2019-03-22T19:07:48.015Z,96.40
2019-03-22T19:10:17.863Z,96.40
2019-03-22T19:12:47.615Z,96.20
2019-03-22T19:15:17.406Z,96.60
2019-03-22T19:17:47.163Z,96.90
2019-03-22T19:20:17.126Z,96.40
2019-03-22T19:22:47.334Z,96.10
2019-03-22T19:25:17.051Z,96.00
2019-03-22T19:27:46.833Z,96.00
2019-03-22T19:30:17.671Z,96.20
2019-03-22T19:32:47.454Z,96.20
2019-03-22T19:35:17.194Z,96.10
2019-03-22T19:37:46.962Z,96.00
2019-03-22T19:40:17.008Z,96.00
2019-03-22T19:42:48.787Z,95.90
2019-03-22T19:45:18.556Z,95.90
2019-03-22T19:47:48.311Z,96.00
2019-03-22T19:50:18.147Z,96.10
2019-03-22T19:52:47.895Z,96.10
2019-03-22T19:55:17.682Z,96.10
2019-03-22T19:57:47.433Z,96.20
2019-03-22T20:00:19.023Z,96.20
2019-03-22T20:02:49.319Z,96.20
2019-03-22T20:05:34.934Z,96.60
2019-03-22T20:08:04.788Z,96.10
2019-03-22T20:10:34.533Z,96.20
2019-03-22T20:13:04.279Z,96.20
2019-03-22T20:15:35.018Z,96.00
2019-03-22T20:18:04.825Z,95.70
2019-03-22T20:20:36.235Z,95.70
2019-03-22T20:23:06.149Z,95.60
2019-03-22T20:25:35.895Z,95.50
2019-03-22T20:28:06.187Z,95.60
2019-03-22T20:30:35.927Z,95.70
2019-03-22T20:33:05.907Z,95.60
2019-03-22T20:35:35.661Z,95.30
2019-03-22T20:38:05.387Z,95.80
2019-03-22T20:40:35.130Z,96.20
2019-03-22T20:43:04.882Z,96.10
2019-03-22T20:45:34.695Z,95.80
2019-03-22T20:48:04.396Z,95.90
2019-03-22T20:50:35.962Z,96.10
2019-03-22T20:53:05.575Z,95.60
2019-03-22T20:55:35.370Z,95.10
2019-03-22T20:58:05.123Z,95.50
2019-03-22T21:00:34.911Z,95.60
2019-03-22T21:03:04.862Z,95.50
2019-03-22T21:05:34.610Z,95.50
2019-03-22T21:08:04.354Z,95.70
2019-03-22T21:10:34.082Z,95.70
2019-03-22T21:13:03.864Z,96.00
2019-03-22T21:15:33.700Z,95.90
2019-03-22T21:18:03.469Z,95.90
2019-03-22T21:20:33.318Z,96.00
2019-03-22T21:23:04.599Z,96.40
2019-03-22T21:25:34.502Z,96.40
2019-03-22T21:28:04.245Z,96.40
2019-03-22T21:30:34.558Z,96.40
2019-03-22T21:33:04.283Z,96.30
2019-03-22T21:35:37.608Z,96.30
2019-03-22T21:38:10.709Z,96.30
2019-03-22T21:40:37.944Z,96.10
2019-03-22T21:43:07.687Z,96.20
2019-03-22T21:45:37.431Z,96.10
2019-03-22T21:48:07.199Z,96.10
2019-03-22T21:50:36.862Z,96.20
2019-03-22T21:53:06.655Z,96.80
2019-03-22T21:55:36.702Z,97.10
2019-03-22T21:58:06.498Z,97.50
2019-03-22T22:00:36.240Z,97.60
2019-03-22T22:03:07.042Z,97.40
2019-03-22T22:05:47.268Z,97.50
2019-03-22T22:08:08.467Z,97.50
2019-03-22T22:10:38.264Z,97.80
2019-03-22T22:13:08.056Z,97.30
2019-03-22T22:15:37.805Z,97.20
2019-03-22T22:18:07.567Z,97.30
2019-03-22T22:20:37.322Z,97.20
2019-03-22T22:23:07.066Z,97.10
2019-03-22T22:25:36.854Z,97.10
2019-03-22T22:28:09.322Z,97.00
2019-03-22T22:30:39.114Z,97.10
2019-03-22T22:33:08.856Z,97.10
2019-03-22T22:35:38.610Z,97.10
2019-03-22T22:38:08.350Z,97.10
2019-03-22T22:40:38.086Z,97.10
2019-03-22T22:43:08.895Z,97.00
2019-03-22T22:45:38.658Z,97.50
2019-03-22T22:48:08.405Z,97.10
2019-03-22T22:50:38.227Z,97.10
2019-03-22T22:53:07.954Z,97.40
2019-03-22T22:55:38.493Z,97.10
2019-03-22T22:58:08.285Z,97.10
2019-03-22T23:00:38.031Z,97.10
2019-03-22T23:03:07.775Z,97.00
2019-03-22T23:05:37.556Z,96.90
2019-03-22T23:08:07.298Z,97.00
2019-03-22T23:10:37.026Z,96.80
2019-03-22T23:13:06.818Z,96.80
2019-03-22T23:15:36.559Z,97.00
2019-03-22T23:18:06.307Z,96.40
2019-03-22T23:20:36.059Z,96.60
2019-03-22T23:23:05.847Z,97.00
2019-03-22T23:25:35.596Z,96.70
2019-03-22T23:28:05.335Z,96.60
2019-03-22T23:30:35.080Z,96.80
2019-03-22T23:33:04.823Z,97.00
2019-03-22T23:35:35.014Z,97.00
2019-03-22T23:38:04.756Z,97.20
2019-03-22T23:40:34.506Z,97.00
2019-03-22T23:43:04.255Z,97.00
2019-03-22T23:45:34.057Z,97.10
2019-03-22T23:48:03.769Z,97.20
2019-03-22T23:50:33.514Z,97.20
2019-03-22T23:53:03.265Z,96.90
2019-03-22T23:55:33.053Z,97.00
2019-03-22T23:58:02.797Z,97.20
